Time;durP1;ratioP1;P1;durP2;ratioP2;P2;SDS_P1;SDS_P2;PMS_P1;PMS_P2;Temp;Humidity;BMP_temperature;BMP_pressure;BME280_temperature;BME280_humidity;BME280_pressure;Samples;Min_cycle;Max_cycle;Signal;HPM_P1;HPM_P2
2022/06/21 00:00:50;;;;;;;7.07;2.30;;;;;;;27.65;38.07;100056.72;6069829;23;20450;-89
2022/06/21 00:03:22;;;;;;;4.75;2.10;;;;;;;27.55;38.39;100062.22;6071180;23;20015;-88
2022/06/21 00:05:50;;;;;;;5.32;1.98;;;;;;;27.41;38.54;100060.44;6044959;23;20015;-86
2022/06/21 00:08:19;;;;;;;5.82;1.75;;;;;;;27.28;39.05;100050.19;6043919;23;20398;-87
2022/06/21 00:10:48;;;;;;;6.30;1.83;;;;;;;27.17;38.91;100055.69;6069905;23;20316;-89
2022/06/21 00:13:20;;;;;;;8.90;1.98;;;;;;;27.20;38.90;100060.56;6069731;23;20046;-88
2022/06/21 00:15:50;;;;;;;5.60;2.40;;;;;;;27.20;38.93;100063.31;6069746;23;20017;-89
2022/06/21 00:18:19;;;;;;;9.02;1.83;;;;;;;27.31;38.48;100063.22;6045067;23;20022;-90
2022/06/21 00:20:45;;;;;;;9.43;1.90;;;;;;;27.28;38.70;100061.06;6023296;23;20021;-87
2022/06/21 00:23:20;;;;;;;6.55;2.28;;;;;;;27.23;38.79;100054.56;6071621;23;20015;-91
2022/06/21 00:25:49;;;;;;;9.45;1.85;;;;;;;27.18;38.97;100051.88;6073414;23;20022;-88
2022/06/21 00:28:17;;;;;;;6.05;1.80;;;;;;;27.23;39.10;100048.31;6073314;23;20011;-90
2022/06/21 00:30:44;;;;;;;3.85;1.80;;;;;;;27.26;38.60;100052.38;6049597;23;20015;-92
2022/06/21 00:33:13;;;;;;;10.75;1.85;;;;;;;27.27;38.67;100048.56;6049786;23;20070;-91
2022/06/21 00:35:41;;;;;;;9.20;1.88;;;;;;;27.20;39.09;100057.84;6069867;23;20022;-88
2022/06/21 00:38:15;;;;;;;11.45;2.40;;;;;;;27.05;39.77;100060.66;6045693;23;20015;-93
2022/06/21 00:40:41;;;;;;;8.05;2.13;;;;;;;26.92;40.14;100058.56;6072142;23;20006;-91
2022/06/21 00:43:26;;;;;;;8.43;2.30;;;;;;;26.65;40.79;100064.38;6049151;23;20070;-90
2022/06/21 00:45:52;;;;;;;5.07;2.40;;;;;;;26.33;41.88;100071.28;6048013;23;20015;-90
2022/06/21 00:48:37;;;;;;;5.95;2.33;;;;;;;26.18;42.34;100072.94;6074626;23;20042;-90
2022/06/21 00:51:31;;;;;;;9.68;2.80;;;;;;;26.05;42.80;100072.72;6073014;23;20015;-87
2022/06/21 00:54:02;;;;;;;6.93;2.88;;;;;;;25.91;43.41;100072.44;6073284;23;20011;-89
2022/06/21 00:56:43;;;;;;;7.18;2.97;;;;;;;25.77;43.55;100082.22;6074498;23;20018;-89
2022/06/21 00:59:17;;;;;;;8.35;2.78;;;;;;;25.68;43.99;100087.41;6087777;23;20083;-91
2022/06/21 01:01:42;;;;;;;11.23;3.40;;;;;;;25.67;44.22;100096.63;6037314;23;20169;-88
2022/06/21 01:04:25;;;;;;;6.95;2.95;;;;;;;25.66;44.36;100094.16;6081831;23;20014;-87
2022/06/21 01:06:52;;;;;;;;;;;;;;;25.56;44.88;100088.75;6054557;23;20018;-87
2022/06/21 01:09:21;;;;;;;15.63;3.35;;;;;;;25.54;45.15;100091.75;6057941;23;19914;-90
2022/06/21 01:12:03;;;;;;;6.43;3.13;;;;;;;25.47;45.80;100093.88;6082172;23;20011;-90
2022/06/21 01:14:31;;;;;;;6.72;3.83;;;;;;;25.42;46.14;100087.63;6080859;23;20015;-91
2022/06/21 01:16:58;;;;;;;15.35;3.97;;;;;;;25.50;46.31;100089.81;6079617;23;20015;-91
2022/06/21 01:20:02;;;;;;;10.05;3.97;;;;;;;25.47;46.92;100084.91;6060555;23;20039;-91
2022/06/21 01:22:54;;;;;;;15.63;4.13;;;;;;;25.38;47.19;100098.22;5942455;23;20035;-91
2022/06/21 01:25:26;;;;;;;16.10;4.10;;;;;;;25.29;47.88;100099.00;5976294;23;20511;-93
2022/06/21 01:27:55;;;;;;;11.38;4.18;;;;;;;25.25;47.89;100093.31;5984993;23;20057;-90
2022/06/21 01:30:22;;;;;;;13.05;4.32;;;;;;;25.26;48.31;100100.34;5986439;23;20020;-92
2022/06/21 01:32:50;;;;;;;7.57;4.22;;;;;;;25.31;47.91;100099.53;5991600;23;20015;-94
2022/06/21 01:35:24;;;;;;;15.45;4.25;;;;;;;25.36;48.09;100105.78;6048369;23;20461;-89
2022/06/21 01:37:50;;;;;;;11.85;3.55;;;;;;;25.46;47.63;100104.97;6046187;23;20018;-91
2022/06/21 01:40:25;;;;;;;8.50;4.03;;;;;;;25.60;47.09;100100.69;6072493;23;20074;-89
2022/06/21 01:42:57;;;;;;;7.05;4.00;;;;;;;25.53;47.61;100100.13;6022121;23;20011;-89
2022/06/21 01:45:34;;;;;;;12.38;3.83;;;;;;;25.45;48.23;100097.94;6047802;23;20058;-90
2022/06/21 01:48:11;;;;;;;11.50;3.80;;;;;;;25.43;48.52;100089.25;6036238;23;20050;-92
2022/06/21 01:50:39;;;;;;;10.90;3.60;;;;;;;25.29;49.10;100088.94;6095776;23;20045;-90
2022/06/21 01:53:07;;;;;;;10.50;4.28;;;;;;;25.25;49.30;100089.78;6071367;23;20011;-91
2022/06/21 01:55:42;;;;;;;8.73;3.95;;;;;;;25.31;49.42;100096.84;6072264;23;20006;-90
2022/06/21 01:58:14;;;;;;;13.20;4.00;;;;;;;25.05;50.08;100080.53;6094920;23;20059;-88
2022/06/21 02:00:45;;;;;;;16.63;4.63;;;;;;;24.91;50.50;100087.53;6070865;23;20062;-89
2022/06/21 02:03:18;;;;;;;14.60;3.85;;;;;;;24.87;50.89;100083.72;6071549;23;20011;-89
2022/06/21 02:05:50;;;;;;;11.07;4.05;;;;;;;24.79;51.12;100084.19;6070231;23;20014;-89
2022/06/21 02:08:20;;;;;;;10.77;3.80;;;;;;;24.74;50.97;100086.88;6044086;23;20026;-89
2022/06/21 02:10:57;;;;;;;12.10;3.15;;;;;;;24.84;50.99;100080.72;6069770;23;20015;-89
2022/06/21 02:13:32;;;;;;;7.85;3.60;;;;;;;24.80;51.00;100074.97;6072428;23;20015;-92
2022/06/21 02:16:20;;;;;;;9.00;3.65;;;;;;;24.81;50.96;100092.06;6071175;23;20011;-90
2022/06/21 02:18:53;;;;;;;8.52;3.55;;;;;;;24.69;50.90;100076.03;6068689;23;20042;-85
2022/06/21 02:21:38;;;;;;;11.75;3.30;;;;;;;24.63;51.57;100082.50;6069306;23;20438;-87
2022/06/21 02:24:04;;;;;;;14.07;3.85;;;;;;;24.52;51.77;100078.13;6068953;23;20071;-88
2022/06/21 02:26:33;;;;;;;10.63;3.90;;;;;;;24.62;51.44;100089.84;6070965;23;20011;-87
2022/06/21 02:28:59;;;;;;;10.45;3.50;;;;;;;24.48;51.82;100099.50;6069664;23;20011;-89
2022/06/21 02:31:26;;;;;;;6.50;3.28;;;;;;;24.43;52.27;100106.78;6073192;23;20017;-89
2022/06/21 02:33:55;;;;;;;11.20;3.35;;;;;;;24.38;52.22;100098.63;6073088;23;20018;-90
2022/06/21 02:36:33;;;;;;;13.98;4.07;;;;;;;24.41;52.03;100104.34;6074256;23;20013;-86
2022/06/21 02:39:04;;;;;;;19.42;3.20;;;;;;;24.48;52.26;100106.81;6071639;23;20022;-88
2022/06/21 02:41:37;;;;;;;5.40;3.53;;;;;;;24.47;52.63;100102.47;6073216;23;20014;-91
2022/06/21 02:44:13;;;;;;;13.95;3.00;;;;;;;24.40;53.29;100099.19;6074459;23;20037;-90
2022/06/21 02:46:45;;;;;;;8.50;3.35;;;;;;;24.45;53.13;100104.63;6073360;23;20022;-89
2022/06/21 02:49:43;;;;;;;13.02;3.38;;;;;;;24.27;53.89;100096.94;6074961;23;20007;-91
2022/06/21 02:52:17;;;;;;;11.15;3.10;;;;;;;24.19;54.64;100101.75;6048146;23;20089;-88
2022/06/21 02:54:54;;;;;;;10.07;3.20;;;;;;;24.13;55.03;100102.00;6046476;23;20031;-91
2022/06/21 02:57:28;;;;;;;8.50;3.20;;;;;;;24.15;54.45;100103.38;6047158;23;20015;-87
2022/06/21 02:59:56;;;;;;;5.13;2.70;;;;;;;24.31;54.27;100092.63;6072576;23;20018;-88
2022/06/21 03:02:25;;;;;;;10.13;3.10;;;;;;;24.19;54.90;100096.34;6071298;23;20468;-84
2022/06/21 03:04:58;;;;;;;7.68;3.10;;;;;;;24.16;55.11;100099.59;6044959;23;20386;-85
2022/06/21 03:07:28;;;;;;;9.63;2.72;;;;;;;24.17;55.50;100109.34;6071000;23;20006;-84
2022/06/21 03:09:54;;;;;;;7.50;3.08;;;;;;;23.99;56.19;100115.16;6044870;23;20011;-85
2022/06/21 03:12:24;;;;;;;8.93;3.45;;;;;;;23.94;56.99;100114.28;6071028;23;20011;-86
2022/06/21 03:14:53;;;;;;;9.00;3.10;;;;;;;24.01;56.66;100110.28;6071336;23;20043;-87
2022/06/21 03:17:23;;;;;;;10.55;3.25;;;;;;;23.93;57.03;100118.88;6044573;23;20015;-87
2022/06/21 03:19:52;;;;;;;8.90;3.05;;;;;;;24.01;56.99;100114.88;6044941;23;20022;-87
2022/06/21 03:22:20;;;;;;;5.97;3.00;;;;;;;23.81;57.56;100112.84;6069792;23;20038;-90
2022/06/21 03:24:49;;;;;;;7.05;3.30;;;;;;;23.77;57.70;100109.00;6044692;23;20086;-85
2022/06/21 03:27:31;;;;;;;7.05;3.15;;;;;;;23.90;57.08;100103.16;6069701;23;20021;-86
2022/06/21 03:29:58;;;;;;;7.20;3.58;;;;;;;24.00;56.74;100110.53;6069881;23;20015;-87
2022/06/21 03:32:26;;;;;;;7.75;3.08;;;;;;;24.11;56.83;100110.38;6044486;23;20022;-88
2022/06/21 03:34:53;;;;;;;10.25;3.15;;;;;;;24.08;57.08;100116.31;6070542;23;20438;-85
2022/06/21 03:37:19;;;;;;;7.80;3.45;;;;;;;24.21;56.85;100119.66;6069391;23;20010;-87
2022/06/21 03:42:40;;;;;;;6.35;3.20;;;;;;;23.75;58.56;100115.75;6028532;23;20502;-86
2022/06/21 03:45:21;;;;;;;24.10;3.60;;;;;;;23.76;58.96;100120.13;6069948;23;20414;-86
2022/06/21 03:48:09;;;;;;;6.30;3.20;;;;;;;23.88;58.39;100121.56;6070258;23;20054;-88
2022/06/21 03:50:42;;;;;;;12.18;3.25;;;;;;;23.89;58.47;100123.22;6069950;23;20045;-89
2022/06/21 03:53:15;;;;;;;13.95;3.35;;;;;;;23.79;59.12;100128.53;6069862;23;20046;-87
2022/06/21 03:56:02;;;;;;;10.25;3.08;;;;;;;23.85;59.49;100132.09;6044962;23;20007;-89
2022/06/21 03:58:51;;;;;;;10.60;3.28;;;;;;;23.77;59.72;100133.38;6070367;23;20007;-85
2022/06/21 04:01:19;;;;;;;8.30;3.50;;;;;;;23.59;60.78;100129.19;6071321;23;20007;-86
2022/06/21 04:04:03;;;;;;;8.65;3.28;;;;;;;23.41;61.67;100129.53;6070837;23;20002;-89
2022/06/21 04:06:52;;;;;;;7.15;3.42;;;;;;;23.45;61.68;100137.94;6070286;23;20383;-85
2022/06/21 04:09:29;;;;;;;8.13;3.17;;;;;;;23.72;60.61;100133.34;6058642;23;20311;-86
2022/06/21 04:12:27;;;;;;;6.70;3.05;;;;;;;23.61;61.42;100137.03;6069662;23;20087;-86
2022/06/21 04:15:21;;;;;;;10.88;3.30;;;;;;;23.47;61.84;100146.63;6070914;23;20525;-88
2022/06/21 04:18:07;;;;;;;11.45;3.10;;;;;;;23.59;61.78;100136.47;6070365;23;20014;-84
2022/06/21 04:20:38;;;;;;;14.27;3.35;;;;;;;23.65;61.67;100138.16;6069344;23;20010;-84
2022/06/21 04:23:23;;;;;;;13.55;3.70;;;;;;;23.82;60.86;100133.44;6071737;23;20422;-85
2022/06/21 04:26:22;;;;;;;12.07;3.67;;;;;;;23.80;61.91;100137.47;6069525;23;20015;-89
2022/06/21 04:29:13;;;;;;;15.85;3.67;;;;;;;23.71;62.13;100131.69;6032830;23;20066;-88
2022/06/21 04:32:04;;;;;;;6.68;3.10;;;;;;;23.80;61.77;100140.97;6070165;23;20015;-86
2022/06/21 04:34:45;;;;;;;15.45;4.20;;;;;;;23.82;62.25;100136.13;6071127;23;20030;-86
2022/06/21 04:37:35;;;;;;;7.25;3.20;;;;;;;23.63;63.16;100140.31;6045716;23;20018;-87
2022/06/21 04:40:12;;;;;;;10.18;3.30;;;;;;;23.59;63.11;100150.00;6071264;23;20066;-87
2022/06/21 04:42:41;;;;;;;8.73;3.80;;;;;;;23.64;63.50;100156.25;6070835;23;20098;-85
2022/06/21 04:45:21;;;;;;;15.90;3.63;;;;;;;23.70;63.43;100162.53;6045055;23;20006;-89
2022/06/21 04:48:00;;;;;;;8.93;3.50;;;;;;;23.66;63.98;100161.44;6056560;23;20018;-87
2022/06/21 04:50:36;;;;;;;14.00;3.60;;;;;;;23.59;64.80;100150.00;6072413;23;20019;-88
2022/06/21 04:53:10;;;;;;;7.53;3.13;;;;;;;23.69;64.53;100152.81;6069963;23;20046;-87
2022/06/21 04:55:54;;;;;;;15.88;3.50;;;;;;;23.80;64.75;100161.84;6072713;23;20316;-87
2022/06/21 04:58:19;;;;;;;16.40;3.60;;;;;;;23.91;64.13;100167.06;6070141;23;20011;-87
2022/06/21 05:00:48;;;;;;;14.05;4.15;;;;;;;23.91;64.55;100168.94;6069159;23;20010;-84
2022/06/21 05:03:38;;;;;;;11.52;3.83;;;;;;;24.15;63.91;100173.78;6069218;23;20015;-85
2022/06/21 05:06:04;;;;;;;11.40;3.97;;;;;;;24.11;64.29;100174.53;6069836;23;20011;-89
2022/06/21 05:08:30;;;;;;;14.25;4.30;;;;;;;24.28;63.18;100174.41;6068051;23;20457;-86
2022/06/21 05:11:00;;;;;;;10.85;3.42;;;;;;;24.23;63.77;100177.88;6069354;23;20015;-91
2022/06/21 05:13:40;;;;;;;9.40;3.22;;;;;;;24.34;63.69;100179.59;6069475;23;20458;-87
2022/06/21 05:16:15;;;;;;;13.13;3.67;;;;;;;24.60;63.31;100183.28;6070619;23;20042;-87
2022/06/21 05:18:49;;;;;;;20.98;4.40;;;;;;;24.57;63.88;100186.53;6070258;23;20010;-92
2022/06/21 05:21:20;;;;;;;15.77;4.22;;;;;;;24.57;63.81;100191.94;6072047;23;20010;-89
2022/06/21 05:23:47;;;;;;;19.20;3.83;;;;;;;24.71;63.64;100195.84;6078365;23;20018;-87
2022/06/21 05:26:23;;;;;;;15.82;3.55;;;;;;;24.80;63.61;100188.81;6079164;23;20055;-87
2022/06/21 05:28:55;;;;;;;22.60;4.30;;;;;;;24.92;63.49;100192.19;6091133;23;20011;-86
2022/06/21 05:31:25;;;;;;;19.60;4.00;;;;;;;25.01;63.91;100187.06;6092410;23;20018;-88
2022/06/21 05:33:57;;;;;;;19.95;4.47;;;;;;;25.08;63.50;100191.16;6088064;23;20011;-87
2022/06/21 05:36:37;;;;;;;;;;;;;;;25.15;63.61;100191.75;6074509;23;20007;-88
2022/06/21 05:39:14;;;;;;;31.85;4.10;;;;;;;25.27;62.15;100180.66;6070914;23;19925;-88
2022/06/21 05:41:43;;;;;;;22.65;3.78;;;;;;;25.26;62.84;100175.47;6069979;23;20014;-82
2022/06/21 05:44:26;;;;;;;21.58;4.18;;;;;;;25.27;63.50;100177.94;6069793;23;20007;-85
2022/06/21 05:47:00;;;;;;;18.42;4.15;;;;;;;25.32;63.34;100175.22;6072289;23;20432;-85
2022/06/21 05:49:34;;;;;;;16.90;4.40;;;;;;;25.39;63.65;100183.94;6075458;23;20022;-84
2022/06/21 05:52:13;;;;;;;26.33;4.50;;;;;;;25.57;63.69;100194.31;6050063;23;20015;-87
2022/06/21 05:54:44;;;;;;;21.20;4.72;;;;;;;25.79;62.39;100196.78;6076367;23;20095;-83
2022/06/21 05:57:17;;;;;;;16.17;4.15;;;;;;;26.07;62.01;100193.56;6073986;23;20090;-85
2022/06/21 05:59:43;;;;;;;23.35;4.18;;;;;;;26.35;60.68;100196.84;6074833;23;20011;-87
2022/06/21 06:02:22;;;;;;;16.70;4.45;;;;;;;26.55;60.22;100204.94;6076015;23;20018;-89
2022/06/21 06:05:00;;;;;;;19.77;4.20;;;;;;;26.92;58.74;100201.91;6050993;23;20082;-93
2022/06/21 06:07:35;;;;;;;18.05;3.90;;;;;;;27.20;58.03;100198.53;6053106;23;20090;-91
2022/06/21 06:10:03;;;;;;;13.30;3.80;;;;;;;27.37;57.45;100190.00;6080039;23;20039;-88
2022/06/21 06:12:37;;;;;;;13.82;3.70;;;;;;;27.62;55.88;100198.88;6056359;23;20126;-87
2022/06/21 06:15:06;;;;;;;17.67;3.50;;;;;;;27.82;55.95;100202.53;6075794;23;20015;-85
2022/06/21 06:17:55;;;;;;;14.55;4.20;;;;;;;28.02;53.03;100203.22;6080882;23;20030;-88
2022/06/21 06:20:26;;;;;;;12.77;3.92;;;;;;;28.12;53.59;100194.16;6042740;23;20015;-89
2022/06/21 06:23:11;;;;;;;12.98;3.97;;;;;;;28.67;51.47;100192.84;6081621;23;20011;-87
2022/06/21 06:25:48;;;;;;;17.98;4.20;;;;;;;28.99;50.27;100186.75;6034847;23;20354;-86
2022/06/21 06:28:20;;;;;;;11.63;3.95;;;;;;;29.23;48.82;100207.44;6081488;23;20071;-86
2022/06/21 06:30:49;;;;;;;10.93;3.97;;;;;;;29.19;49.05;100206.44;6056774;23;20057;-86
2022/06/21 06:33:23;;;;;;;8.35;3.45;;;;;;;29.32;48.76;100215.03;6075440;23;20007;-84
2022/06/21 06:35:49;;;;;;;9.32;3.78;;;;;;;29.24;48.92;100202.81;6074508;23;20011;-90
2022/06/21 06:38:16;;;;;;;9.68;3.10;;;;;;;29.75;47.49;100200.22;6073610;23;20010;-85
2022/06/21 06:40:50;;;;;;;10.73;3.13;;;;;;;29.93;46.97;100218.53;6071666;23;20074;-86
2022/06/21 06:43:26;;;;;;;14.52;2.97;;;;;;;29.79;47.21;100214.91;6075058;23;20047;-84
2022/06/21 06:45:55;;;;;;;5.72;3.00;;;;;;;30.06;46.92;100206.03;6077040;23;20060;-88
2022/06/21 06:48:28;;;;;;;8.77;3.00;;;;;;;30.22;46.50;100201.94;6067589;23;20019;-90
2022/06/21 06:51:58;;;;;;;13.35;3.53;;;;;;;30.10;47.55;100196.94;6052049;23;20014;-86
2022/06/21 06:54:24;;;;;;;16.15;4.10;;;;;;;30.11;47.49;100201.28;6026894;23;20018;-87
2022/06/21 06:57:04;;;;;;;10.65;3.67;;;;;;;29.65;48.90;100198.44;6070926;23;20378;-86
2022/06/21 06:59:30;;;;;;;12.98;4.03;;;;;;;29.92;47.95;100195.06;6073995;23;20011;-91
2022/06/21 07:02:04;;;;;;;9.32;3.05;;;;;;;30.65;46.54;100191.63;6071915;23;20039;-87
2022/06/21 07:04:40;;;;;;;15.07;4.78;;;;;;;30.73;45.52;100190.91;6074314;23;20058;-92
2022/06/21 07:07:17;;;;;;;11.00;4.32;;;;;;;30.71;45.87;100198.59;6072811;23;20023;-93
2022/06/21 07:09:48;;;;;;;24.05;7.25;;;;;;;30.80;45.91;100206.91;6073681;23;20022;-87
2022/06/21 07:12:21;;;;;;;15.73;3.58;;;;;;;31.26;43.96;100211.19;6075226;23;20011;-90
2022/06/21 07:14:49;;;;;;;10.98;4.28;;;;;;;31.06;43.62;100211.59;6070903;23;20031;-90
2022/06/21 07:17:36;;;;;;;14.30;3.97;;;;;;;30.72;44.48;100205.72;6072246;23;20007;-90
2022/06/21 07:20:03;;;;;;;14.18;3.15;;;;;;;30.75;44.54;100205.09;6072092;23;20011;-85
2022/06/21 07:22:34;;;;;;;15.57;4.50;;;;;;;31.16;44.21;100200.44;6075436;23;20003;-87
2022/06/21 07:25:33;;;;;;;8.23;2.60;;;;;;;31.46;43.05;100184.47;6073252;23;20007;-87
2022/06/21 07:28:08;;;;;;;17.95;3.42;;;;;;;30.43;45.05;100183.25;6075999;23;20011;-86
2022/06/21 07:30:39;;;;;;;11.57;2.90;;;;;;;31.71;42.22;100172.97;6074394;23;20506;-87
2022/06/21 07:33:38;;;;;;;14.53;3.17;;;;;;;31.08;42.71;100179.28;6098441;23;20042;-88
2022/06/21 07:36:09;;;;;;;7.95;3.10;;;;;;;30.68;43.51;100177.31;6074747;23;20061;-87
2022/06/21 07:38:59;;;;;;;14.57;3.33;;;;;;;30.64;43.96;100176.31;6073909;23;20011;-89
2022/06/21 07:41:38;;;;;;;7.18;3.05;;;;;;;30.87;42.91;100174.47;6097499;23;20450;-89
2022/06/21 07:44:28;;;;;;;7.03;2.67;;;;;;;30.67;42.80;100170.22;6077925;23;20011;-93
2022/06/21 07:49:52;;;;;;;11.38;4.43;;;;;;;31.25;42.17;100167.69;5082384;27;20395;-85
2022/06/21 07:52:17;;;;;;;10.43;3.38;;;;;;;31.44;41.62;100168.34;5109958;28;20033;-83
2022/06/21 07:54:56;;;;;;;9.27;2.70;;;;;;;31.22;40.97;100171.06;5086057;28;20071;-81
2022/06/21 07:57:33;;;;;;;11.90;2.75;;;;;;;30.98;42.13;100165.81;5078201;28;20029;-89
2022/06/21 08:00:21;;;;;;;10.45;3.47;;;;;;;31.83;40.32;100158.69;5081328;28;20498;-86
2022/06/21 08:08:42;;;;;;;12.85;2.55;;;;;;;32.54;37.63;100152.19;5093445;28;20025;-87
2022/06/21 08:11:15;;;;;;;10.57;2.70;;;;;;;32.48;38.11;100150.72;5083842;28;20072;-89
2022/06/21 08:13:41;;;;;;;8.40;3.13;;;;;;;32.84;38.31;100156.06;5082468;28;20060;-89
2022/06/21 08:16:27;;;;;;;10.60;3.05;;;;;;;33.15;37.47;100157.59;5091079;28;20021;-92
2022/06/21 08:19:17;;;;;;;6.78;3.20;;;;;;;33.17;37.36;100155.34;5073063;28;20031;-87
2022/06/21 08:21:58;;;;;;;11.85;3.05;;;;;;;32.94;37.35;100153.81;5076067;28;20032;-85
2022/06/21 08:24:56;;;;;;;8.45;2.92;;;;;;;32.19;37.94;100152.03;5077628;28;20033;-86
2022/06/21 08:27:32;;;;;;;16.02;2.60;;;;;;;31.62;37.09;100159.16;5065846;28;20484;-86
2022/06/21 08:30:06;;;;;;;9.80;2.42;;;;;;;31.66;36.46;100160.19;5079371;28;20036;-87
2022/06/21 08:32:38;;;;;;;11.25;2.45;;;;;;;31.54;37.23;100156.38;5089807;28;20020;-86
2022/06/21 08:35:15;;;;;;;11.38;2.42;;;;;;;31.65;37.93;100157.75;5094146;28;20047;-92
2022/06/21 08:37:56;;;;;;;5.70;2.40;;;;;;;31.76;38.92;100159.13;5092337;28;20071;-90
2022/06/21 08:40:41;;;;;;;8.30;2.88;;;;;;;31.68;39.43;100154.41;5072119;28;20048;-89
2022/06/21 08:43:18;;;;;;;10.48;2.42;;;;;;;31.72;38.49;100164.41;5073701;28;20079;-87
2022/06/21 08:46:12;;;;;;;10.50;2.80;;;;;;;31.81;38.57;100174.66;5073834;28;20028;-89
2022/06/21 08:48:49;;;;;;;9.07;2.55;;;;;;;32.03;37.87;100182.84;5071251;28;20048;-86
2022/06/21 08:51:46;;;;;;;6.15;2.55;;;;;;;31.86;37.88;100169.03;5071819;28;20090;-87
2022/06/21 08:54:41;;;;;;;11.43;2.80;;;;;;;31.95;38.01;100170.69;5072517;28;20018;-87
2022/06/21 08:57:39;;;;;;;8.85;2.50;;;;;;;32.34;36.64;100174.69;5072149;28;20033;-89
2022/06/21 09:00:25;;;;;;;5.60;2.33;;;;;;;32.66;36.26;100171.66;5066999;28;20041;-91
2022/06/21 09:03:18;;;;;;;11.57;2.38;;;;;;;32.82;35.67;100170.09;5042655;28;20034;-86
2022/06/21 09:06:01;;;;;;;16.77;2.85;;;;;;;32.97;35.26;100172.41;5038948;28;20040;-89
2022/06/21 09:08:49;;;;;;;8.40;2.75;;;;;;;33.03;34.86;100171.13;5047195;28;20649;-89
2022/06/21 09:11:26;;;;;;;8.82;3.22;;;;;;;33.35;34.83;100171.84;5046363;28;20037;-89
2022/06/21 09:14:07;;;;;;;8.82;2.30;;;;;;;32.78;34.43;100169.91;5057125;28;20064;-89
2022/06/21 09:16:48;;;;;;;7.88;2.50;;;;;;;33.22;35.08;100162.63;5063510;28;20041;-89
2022/06/21 09:19:44;;;;;;;6.57;1.95;;;;;;;32.94;34.27;100161.25;5070122;28;20088;-89
2022/06/21 09:28:03;;;;;;;;;;;;;;;33.13;30.56;100159.88;1303714;26;20113;-89
2022/06/21 09:31:07;;;;;;;14.88;2.22;;;;;;;33.25;31.40;100162.78;5059580;28;19921;-89
2022/06/21 09:33:52;;;;;;;6.05;2.20;;;;;;;32.89;30.00;100159.44;5007214;28;20064;-89
2022/06/21 09:36:31;;;;;;;8.15;2.10;;;;;;;32.84;30.80;100147.81;5057901;28;20029;-91
2022/06/21 09:39:17;;;;;;;7.53;1.95;;;;;;;33.14;30.73;100145.00;5074315;28;20550;-90
2022/06/21 09:42:24;;;;;;;3.80;2.13;;;;;;;33.37;31.09;100150.38;5036658;28;20038;-91
2022/06/21 09:45:51;;;;;;;8.23;2.53;;;;;;;33.00;31.32;100136.06;5053322;28;20036;-89
2022/06/21 09:48:43;;;;;;;11.27;2.08;;;;;;;33.13;31.43;100132.41;5016659;28;20050;-93
2022/06/21 09:51:15;;;;;;;10.10;2.13;;;;;;;33.40;31.57;100120.31;5010498;28;20049;-89
2022/06/21 09:54:20;;;;;;;8.98;2.28;;;;;;;33.47;31.73;100119.81;5035374;28;20046;-93
2022/06/21 09:56:55;;;;;;;6.72;2.30;;;;;;;34.02;30.21;100120.72;5004847;28;20103;-87
2022/06/21 09:59:35;;;;;;;9.23;2.30;;;;;;;33.68;30.93;100115.28;5024059;28;20116;-89
2022/06/21 10:02:05;;;;;;;9.85;2.75;;;;;;;33.87;30.28;100128.69;5038462;28;20048;-90
2022/06/21 10:04:57;;;;;;;8.88;2.50;;;;;;;34.09;30.48;100106.47;5039020;28;20044;-90
2022/06/21 10:07:51;;;;;;;14.18;2.08;;;;;;;33.74;29.96;100103.78;5037528;28;20434;-90
2022/06/21 10:10:45;;;;;;;11.98;2.42;;;;;;;33.46;30.37;100108.00;5060169;23;20284;-90
2022/06/21 10:13:35;;;;;;;10.55;1.98;;;;;;;33.59;30.67;100108.97;5039453;28;20041;-90
2022/06/21 10:16:22;;;;;;;8.68;2.38;;;;;;;33.77;30.66;100107.84;5043904;28;20036;-88
2022/06/21 10:18:47;;;;;;;6.97;2.35;;;;;;;34.14;30.31;100117.34;5035506;28;20041;-89
2022/06/21 10:21:13;;;;;;;12.90;2.30;;;;;;;34.14;29.74;100115.38;5046046;28;20030;-90
2022/06/21 10:28:12;;;;;;;12.05;2.80;;;;;;;34.47;29.40;100114.78;5126363;23;20450;-94
2022/06/21 10:31:05;;;;;;;7.57;1.77;;;;;;;34.59;29.16;100115.69;5113070;23;20033;-93
2022/06/21 10:34:02;;;;;;;8.35;2.78;;;;;;;34.77;29.59;100119.19;5048596;28;20044;-93
2022/06/21 10:36:59;;;;;;;9.57;2.60;;;;;;;34.77;29.14;100113.66;5071713;28;20092;-94
2022/06/21 10:39:55;;;;;;;10.82;2.75;;;;;;;34.81;29.49;100108.31;5129494;23;20015;-94
2022/06/21 10:42:55;;;;;;;8.20;2.60;;;;;;;35.40;27.90;100103.56;5080458;28;20131;-92
2022/06/21 10:45:53;;;;;;;8.65;2.72;;;;;;;35.45;28.45;100106.09;5091780;28;20040;-91
2022/06/21 10:48:42;;;;;;;12.05;2.70;;;;;;;35.62;28.89;100089.44;5076517;28;20101;-86
2022/06/21 10:51:40;;;;;;;11.77;2.50;;;;;;;35.44;27.80;100083.22;5059519;28;20078;-89
2022/06/21 10:54:14;;;;;;;13.88;3.00;;;;;;;35.59;28.52;100084.59;5069928;28;20036;-84
2022/06/21 11:03:03;;;;;;;13.50;2.70;;;;;;;35.59;28.65;100076.31;5066349;28;20083;-88
2022/06/21 11:06:13;;;;;;;11.32;2.13;;;;;;;35.44;27.81;100071.38;5066105;28;20040;-87
2022/06/21 11:09:06;;;;;;;10.93;2.53;;;;;;;35.44;28.05;100076.91;5017997;28;20520;-86
2022/06/21 11:15:12;;;;;;;8.07;2.70;;;;;;;35.56;27.62;100071.47;4858664;23;20423;-87
2022/06/21 11:18:02;;;;;;;11.57;2.88;;;;;;;35.58;27.52;100064.44;5061280;28;20056;-88
2022/06/21 11:21:03;;;;;;;10.55;2.72;;;;;;;35.06;28.36;100068.78;5087004;28;20052;-85
2022/06/21 11:23:35;;;;;;;10.65;3.08;;;;;;;34.66;28.55;100063.72;5017275;28;20048;-88
2022/06/21 11:26:25;;;;;;;8.90;2.85;;;;;;;34.26;29.02;100048.69;5068490;28;20104;-89
2022/06/21 11:29:31;;;;;;;14.13;2.85;;;;;;;33.99;29.63;100047.13;5097011;28;20036;-92
2022/06/21 11:32:14;;;;;;;16.13;2.70;;;;;;;33.67;30.13;100054.03;5045063;28;20156;-92
2022/06/21 11:35:08;;;;;;;12.05;2.90;;;;;;;33.58;30.02;100044.13;5097588;28;20035;-90
2022/06/21 11:37:42;;;;;;;14.40;2.72;;;;;;;33.56;30.41;100046.41;5117234;28;20031;-87
2022/06/21 11:40:23;;;;;;;9.63;2.58;;;;;;;33.69;30.52;100037.19;5094524;28;20047;-88
2022/06/21 11:42:52;;;;;;;13.30;2.90;;;;;;;33.81;30.73;100047.53;5104372;28;20044;-89
2022/06/21 11:45:33;;;;;;;16.48;3.08;;;;;;;33.99;29.88;100043.56;5084168;28;20060;-91
2022/06/21 11:48:05;;;;;;;11.10;2.50;;;;;;;33.48;29.62;100033.47;5092920;28;20099;-90
2022/06/21 11:50:54;;;;;;;14.60;2.42;;;;;;;33.75;30.14;100033.13;5076458;28;20099;-91
2022/06/21 11:53:53;;;;;;;11.30;2.60;;;;;;;33.96;29.87;100016.72;5081320;28;20020;-88
2022/06/21 11:56:31;;;;;;;6.28;2.88;;;;;;;33.91;29.54;100009.47;5090007;28;20037;-88
2022/06/21 11:59:58;;;;;;;18.75;5.35;;;;;;;33.82;29.71;100016.94;5094404;28;20024;-91
2022/06/21 12:02:45;;;;;;;11.38;2.70;;;;;;;33.51;30.34;100010.88;4980410;28;20046;-89
2022/06/21 12:05:29;;;;;;;12.05;2.33;;;;;;;33.14;30.75;100013.19;5001551;28;20043;-88
2022/06/21 12:08:22;;;;;;;69.80;31.27;;;;;;;33.01;29.59;100003.09;4990504;28;20050;-84
2022/06/21 12:11:12;;;;;;;9.35;4.03;;;;;;;33.11;29.93;100002.81;5014238;28;20053;-88
2022/06/21 12:13:58;;;;;;;14.90;2.42;;;;;;;33.19;29.85;99993.78;5007811;28;20054;-90
2022/06/21 12:16:37;;;;;;;19.02;3.20;;;;;;;33.54;30.07;99994.50;4991366;28;20478;-87
2022/06/21 12:19:10;;;;;;;28.05;17.02;;;;;;;33.67;29.74;100003.75;5020256;28;20053;-88
2022/06/21 12:22:06;;;;;;;21.98;8.30;;;;;;;33.67;29.84;99999.06;5007421;28;20065;-89
2022/06/21 12:24:32;;;;;;;14.43;7.13;;;;;;;33.59;30.49;100007.28;5015564;28;20502;-88
2022/06/21 12:26:57;;;;;;;12.55;2.10;;;;;;;33.65;29.54;100003.25;4982865;28;20070;-87
2022/06/21 12:29:23;;;;;;;15.77;7.43;;;;;;;33.64;29.37;99999.69;5012932;28;20022;-91
2022/06/21 12:32:00;;;;;;;15.48;2.75;;;;;;;33.55;29.38;100000.81;5024953;28;20046;-87
2022/06/21 12:34:42;;;;;;;9.10;2.20;;;;;;;33.54;29.23;100000.00;5080123;28;20040;-89
2022/06/21 12:37:28;;;;;;;6.05;2.42;;;;;;;33.62;29.42;99996.47;5096281;28;20036;-83
2022/06/21 12:40:03;;;;;;;7.32;2.03;;;;;;;33.45;29.45;99987.41;5093426;28;20093;-85
2022/06/21 12:42:34;;;;;;;8.95;2.42;;;;;;;33.43;30.03;99975.97;5066525;28;20036;-89
2022/06/21 12:45:15;;;;;;;11.48;2.50;;;;;;;33.78;30.05;99985.72;5060973;28;20071;-89